sensor_id;sensor_type;location;lat;lon;timestamp;temperature;humidity
7232;DHT22;3657;49.630;11.018;2023-12-07T00:01:40;1.40;99.90
7232;DHT22;3657;49.630;11.018;2023-12-07T00:04:08;1.40;99.90
7232;DHT22;3657;49.630;11.018;2023-12-07T00:06:35;1.40;99.90
7232;DHT22;3657;49.630;11.018;2023-12-07T00:09:02;1.40;99.90
7232;DHT22;3657;49.630;11.018;2023-12-07T00:11:29;1.40;99.90
7232;DHT22;3657;49.630;11.018;2023-12-07T00:13:56;1.40;99.90
7232;DHT22;3657;49.630;11.018;2023-12-07T00:16:23;1.40;99.90
7232;DHT22;3657;49.630;11.018;2023-12-07T00:18:49;1.40;99.90
7232;DHT22;3657;49.630;11.018;2023-12-07T00:21:17;1.30;99.90
7232;DHT22;3657;49.630;11.018;2023-12-07T00:23:44;1.40;99.90
7232;DHT22;3657;49.630;11.018;2023-12-07T00:26:11;1.40;99.90
7232;DHT22;3657;49.630;11.018;2023-12-07T00:28:38;1.40;99.90
7232;DHT22;3657;49.630;11.018;2023-12-07T00:31:04;1.40;99.90
7232;DHT22;3657;49.630;11.018;2023-12-07T00:33:31;1.40;99.90
7232;DHT22;3657;49.630;11.018;2023-12-07T00:35:58;1.40;99.90
7232;DHT22;3657;49.630;11.018;2023-12-07T00:38:26;1.40;99.90
7232;DHT22;3657;49.630;11.018;2023-12-07T00:40:52;1.40;99.90
7232;DHT22;3657;49.630;11.018;2023-12-07T00:43:19;1.40;99.90
7232;DHT22;3657;49.630;11.018;2023-12-07T00:45:45;1.40;99.90
7232;DHT22;3657;49.630;11.018;2023-12-07T00:48:11;1.40;99.90
7232;DHT22;3657;49.630;11.018;2023-12-07T00:50:38;1.40;99.90
7232;DHT22;3657;49.630;11.018;2023-12-07T00:53:05;1.40;99.90
7232;DHT22;3657;49.630;11.018;2023-12-07T00:55:33;1.40;99.90
7232;DHT22;3657;49.630;11.018;2023-12-07T00:58:00;1.40;99.90
7232;DHT22;3657;49.630;11.018;2023-12-07T01:00:27;1.40;99.90
7232;DHT22;3657;49.630;11.018;2023-12-07T01:02:54;1.40;99.90
7232;DHT22;3657;49.630;11.018;2023-12-07T01:05:20;1.40;99.90
7232;DHT22;3657;49.630;11.018;2023-12-07T01:07:47;1.40;99.90
7232;DHT22;3657;49.630;11.018;2023-12-07T01:10:14;1.40;99.90
7232;DHT22;3657;49.630;11.018;2023-12-07T01:12:42;1.30;99.90
7232;DHT22;3657;49.630;11.018;2023-12-07T01:15:09;1.40;99.90
7232;DHT22;3657;49.630;11.018;2023-12-07T01:17:36;1.30;99.90
7232;DHT22;3657;49.630;11.018;2023-12-07T01:20:04;1.30;99.90
7232;DHT22;3657;49.630;11.018;2023-12-07T01:22:32;1.30;99.90
7232;DHT22;3657;49.630;11.018;2023-12-07T01:24:59;1.30;99.90
7232;DHT22;3657;49.630;11.018;2023-12-07T01:27:25;1.30;99.90
7232;DHT22;3657;49.630;11.018;2023-12-07T01:29:54;1.40;99.90
7232;DHT22;3657;49.630;11.018;2023-12-07T01:32:20;1.30;99.90
7232;DHT22;3657;49.630;11.018;2023-12-07T01:34:47;1.30;99.90
7232;DHT22;3657;49.630;11.018;2023-12-07T01:37:14;1.30;99.90
7232;DHT22;3657;49.630;11.018;2023-12-07T01:39:41;1.30;99.90
7232;DHT22;3657;49.630;11.018;2023-12-07T01:42:09;1.30;99.90
7232;DHT22;3657;49.630;11.018;2023-12-07T01:44:37;1.30;99.90
7232;DHT22;3657;49.630;11.018;2023-12-07T01:47:06;1.40;99.90
7232;DHT22;3657;49.630;11.018;2023-12-07T01:49:33;1.40;99.90
7232;DHT22;3657;49.630;11.018;2023-12-07T01:52:00;1.40;99.90
7232;DHT22;3657;49.630;11.018;2023-12-07T01:54:28;1.40;99.90
7232;DHT22;3657;49.630;11.018;2023-12-07T01:56:55;1.30;99.90
7232;DHT22;3657;49.630;11.018;2023-12-07T01:59:22;1.40;99.90
7232;DHT22;3657;49.630;11.018;2023-12-07T02:01:49;1.30;99.90
7232;DHT22;3657;49.630;11.018;2023-12-07T02:04:18;1.30;99.90
7232;DHT22;3657;49.630;11.018;2023-12-07T02:06:45;1.30;99.90
7232;DHT22;3657;49.630;11.018;2023-12-07T02:09:12;1.30;99.90
7232;DHT22;3657;49.630;11.018;2023-12-07T02:11:39;1.30;99.90
7232;DHT22;3657;49.630;11.018;2023-12-07T02:14:05;1.30;99.90
7232;DHT22;3657;49.630;11.018;2023-12-07T02:16:39;1.30;99.90
7232;DHT22;3657;49.630;11.018;2023-12-07T02:19:24;1.30;99.90
7232;DHT22;3657;49.630;11.018;2023-12-07T02:21:59;1.30;99.90
7232;DHT22;3657;49.630;11.018;2023-12-07T02:24:33;1.30;99.90
7232;DHT22;3657;49.630;11.018;2023-12-07T02:27:02;1.30;99.90
7232;DHT22;3657;49.630;11.018;2023-12-07T02:29:29;1.30;99.90
7232;DHT22;3657;49.630;11.018;2023-12-07T02:31:55;1.30;99.90
7232;DHT22;3657;49.630;11.018;2023-12-07T02:34:22;1.30;99.90
7232;DHT22;3657;49.630;11.018;2023-12-07T02:36:50;1.30;99.90
7232;DHT22;3657;49.630;11.018;2023-12-07T02:39:20;1.30;99.90
7232;DHT22;3657;49.630;11.018;2023-12-07T02:41:50;1.30;99.90
7232;DHT22;3657;49.630;11.018;2023-12-07T02:44:20;1.30;99.90
7232;DHT22;3657;49.630;11.018;2023-12-07T02:46:47;1.30;99.90
7232;DHT22;3657;49.630;11.018;2023-12-07T02:49:14;1.30;99.90
7232;DHT22;3657;49.630;11.018;2023-12-07T02:51:40;1.30;99.90
7232;DHT22;3657;49.630;11.018;2023-12-07T02:54:07;1.30;99.90
7232;DHT22;3657;49.630;11.018;2023-12-07T02:56:34;1.30;99.90
7232;DHT22;3657;49.630;11.018;2023-12-07T02:59:00;1.20;99.90
7232;DHT22;3657;49.630;11.018;2023-12-07T03:01:28;1.30;99.90
7232;DHT22;3657;49.630;11.018;2023-12-07T03:03:55;1.20;99.90
7232;DHT22;3657;49.630;11.018;2023-12-07T03:06:22;1.30;99.90
7232;DHT22;3657;49.630;11.018;2023-12-07T03:08:48;1.20;99.90
7232;DHT22;3657;49.630;11.018;2023-12-07T03:11:15;1.20;99.90
7232;DHT22;3657;49.630;11.018;2023-12-07T03:13:42;1.20;99.90
7232;DHT22;3657;49.630;11.018;2023-12-07T03:16:09;1.20;99.90
7232;DHT22;3657;49.630;11.018;2023-12-07T03:18:37;1.20;99.90
7232;DHT22;3657;49.630;11.018;2023-12-07T03:21:04;1.20;99.90
7232;DHT22;3657;49.630;11.018;2023-12-07T03:23:31;1.20;99.90
7232;DHT22;3657;49.630;11.018;2023-12-07T03:25:58;1.20;99.90
7232;DHT22;3657;49.630;11.018;2023-12-07T03:28:24;1.20;99.90
7232;DHT22;3657;49.630;11.018;2023-12-07T03:30:50;1.20;99.90
7232;DHT22;3657;49.630;11.018;2023-12-07T03:33:17;1.20;99.90
7232;DHT22;3657;49.630;11.018;2023-12-07T03:35:45;1.20;99.90
7232;DHT22;3657;49.630;11.018;2023-12-07T03:38:12;1.20;99.90
7232;DHT22;3657;49.630;11.018;2023-12-07T03:40:38;1.20;99.90
7232;DHT22;3657;49.630;11.018;2023-12-07T03:43:05;1.20;99.90
7232;DHT22;3657;49.630;11.018;2023-12-07T03:45:32;1.20;99.90
7232;DHT22;3657;49.630;11.018;2023-12-07T03:47:58;1.20;99.90
7232;DHT22;3657;49.630;11.018;2023-12-07T03:50:25;1.20;99.90
7232;DHT22;3657;49.630;11.018;2023-12-07T03:52:53;1.20;99.90
7232;DHT22;3657;49.630;11.018;2023-12-07T03:55:20;1.10;99.90
7232;DHT22;3657;49.630;11.018;2023-12-07T03:57:46;1.20;99.90
7232;DHT22;3657;49.630;11.018;2023-12-07T04:00:13;1.20;99.90
7232;DHT22;3657;49.630;11.018;2023-12-07T04:02:41;1.10;99.90
7232;DHT22;3657;49.630;11.018;2023-12-07T04:05:08;1.10;99.90
7232;DHT22;3657;49.630;11.018;2023-12-07T04:07:34;1.10;99.90
7232;DHT22;3657;49.630;11.018;2023-12-07T04:10:03;1.10;99.90
7232;DHT22;3657;49.630;11.018;2023-12-07T04:12:31;1.10;99.90
7232;DHT22;3657;49.630;11.018;2023-12-07T04:14:58;1.10;99.90
7232;DHT22;3657;49.630;11.018;2023-12-07T04:17:24;1.10;99.90
7232;DHT22;3657;49.630;11.018;2023-12-07T04:19:51;1.10;99.90
7232;DHT22;3657;49.630;11.018;2023-12-07T04:22:18;1.00;99.90
7232;DHT22;3657;49.630;11.018;2023-12-07T04:24:44;1.10;99.90
7232;DHT22;3657;49.630;11.018;2023-12-07T04:27:12;1.00;99.90
7232;DHT22;3657;49.630;11.018;2023-12-07T04:29:39;1.00;99.90
7232;DHT22;3657;49.630;11.018;2023-12-07T04:32:06;1.00;99.90
7232;DHT22;3657;49.630;11.018;2023-12-07T04:34:33;0.90;99.90
7232;DHT22;3657;49.630;11.018;2023-12-07T04:37:00;1.00;99.90
7232;DHT22;3657;49.630;11.018;2023-12-07T04:39:26;1.00;99.90
7232;DHT22;3657;49.630;11.018;2023-12-07T04:41:54;1.00;99.90
7232;DHT22;3657;49.630;11.018;2023-12-07T04:44:22;1.00;99.90
7232;DHT22;3657;49.630;11.018;2023-12-07T04:46:51;1.00;99.90
7232;DHT22;3657;49.630;11.018;2023-12-07T04:49:17;1.00;99.90
7232;DHT22;3657;49.630;11.018;2023-12-07T04:51:44;1.10;99.90
7232;DHT22;3657;49.630;11.018;2023-12-07T04:54:12;1.10;99.90
7232;DHT22;3657;49.630;11.018;2023-12-07T04:56:40;1.00;99.90
7232;DHT22;3657;49.630;11.018;2023-12-07T04:59:06;1.00;99.90
7232;DHT22;3657;49.630;11.018;2023-12-07T05:01:35;1.00;99.90
7232;DHT22;3657;49.630;11.018;2023-12-07T05:04:02;1.00;99.90
7232;DHT22;3657;49.630;11.018;2023-12-07T05:06:29;0.90;99.90
7232;DHT22;3657;49.630;11.018;2023-12-07T05:08:55;0.90;99.90
7232;DHT22;3657;49.630;11.018;2023-12-07T05:11:22;0.90;99.90
7232;DHT22;3657;49.630;11.018;2023-12-07T05:13:49;0.90;99.90
7232;DHT22;3657;49.630;11.018;2023-12-07T05:16:16;0.90;99.90
7232;DHT22;3657;49.630;11.018;2023-12-07T05:18:44;0.90;99.90
7232;DHT22;3657;49.630;11.018;2023-12-07T05:21:10;0.90;99.90
7232;DHT22;3657;49.630;11.018;2023-12-07T05:23:37;0.90;99.90
7232;DHT22;3657;49.630;11.018;2023-12-07T05:26:04;0.80;99.90
7232;DHT22;3657;49.630;11.018;2023-12-07T05:28:33;0.80;99.90
7232;DHT22;3657;49.630;11.018;2023-12-07T05:31:00;0.90;99.90
7232;DHT22;3657;49.630;11.018;2023-12-07T05:33:26;0.90;99.90
7232;DHT22;3657;49.630;11.018;2023-12-07T05:35:55;0.90;99.90
7232;DHT22;3657;49.630;11.018;2023-12-07T05:38:21;0.90;99.90
7232;DHT22;3657;49.630;11.018;2023-12-07T05:40:48;0.90;99.90
7232;DHT22;3657;49.630;11.018;2023-12-07T05:43:15;0.90;99.90
7232;DHT22;3657;49.630;11.018;2023-12-07T05:45:41;0.90;99.90
7232;DHT22;3657;49.630;11.018;2023-12-07T05:48:08;0.90;99.90
7232;DHT22;3657;49.630;11.018;2023-12-07T05:50:35;0.90;99.90
7232;DHT22;3657;49.630;11.018;2023-12-07T05:53:06;0.90;99.90
7232;DHT22;3657;49.630;11.018;2023-12-07T05:55:32;0.80;99.90
7232;DHT22;3657;49.630;11.018;2023-12-07T05:57:59;0.80;99.90
7232;DHT22;3657;49.630;11.018;2023-12-07T06:00:26;0.80;99.90
7232;DHT22;3657;49.630;11.018;2023-12-07T06:02:52;0.80;99.90
7232;DHT22;3657;49.630;11.018;2023-12-07T06:05:19;0.80;99.90
7232;DHT22;3657;49.630;11.018;2023-12-07T06:07:46;0.80;99.90
7232;DHT22;3657;49.630;11.018;2023-12-07T06:10:14;0.80;99.90
7232;DHT22;3657;49.630;11.018;2023-12-07T06:12:42;0.90;99.90
7232;DHT22;3657;49.630;11.018;2023-12-07T06:15:09;0.90;99.90
7232;DHT22;3657;49.630;11.018;2023-12-07T06:17:36;0.90;99.90
7232;DHT22;3657;49.630;11.018;2023-12-07T06:20:03;0.90;99.90
7232;DHT22;3657;49.630;11.018;2023-12-07T06:22:30;0.90;99.90
7232;DHT22;3657;49.630;11.018;2023-12-07T06:24:57;0.90;99.90
7232;DHT22;3657;49.630;11.018;2023-12-07T06:27:25;0.90;99.90
7232;DHT22;3657;49.630;11.018;2023-12-07T06:29:52;0.90;99.90
7232;DHT22;3657;49.630;11.018;2023-12-07T06:32:18;0.80;99.90
7232;DHT22;3657;49.630;11.018;2023-12-07T06:34:45;0.90;99.90
7232;DHT22;3657;49.630;11.018;2023-12-07T06:37:12;0.90;99.90
7232;DHT22;3657;49.630;11.018;2023-12-07T06:39:38;0.80;99.90
7232;DHT22;3657;49.630;11.018;2023-12-07T06:42:05;0.80;99.90
7232;DHT22;3657;49.630;11.018;2023-12-07T06:44:34;0.80;99.90
7232;DHT22;3657;49.630;11.018;2023-12-07T06:47:01;0.80;99.90
7232;DHT22;3657;49.630;11.018;2023-12-07T06:49:30;0.80;99.90
7232;DHT22;3657;49.630;11.018;2023-12-07T06:51:56;0.80;99.90
7232;DHT22;3657;49.630;11.018;2023-12-07T06:54:23;0.70;99.90
7232;DHT22;3657;49.630;11.018;2023-12-07T06:56:50;0.80;99.90
7232;DHT22;3657;49.630;11.018;2023-12-07T06:59:16;0.80;99.90
7232;DHT22;3657;49.630;11.018;2023-12-07T07:01:44;0.80;99.90
7232;DHT22;3657;49.630;11.018;2023-12-07T07:04:11;0.80;99.90
7232;DHT22;3657;49.630;11.018;2023-12-07T07:06:38;0.90;99.90
7232;DHT22;3657;49.630;11.018;2023-12-07T07:09:04;0.90;99.90
7232;DHT22;3657;49.630;11.018;2023-12-07T07:11:31;0.90;99.90
7232;DHT22;3657;49.630;11.018;2023-12-07T07:13:58;0.90;99.90
7232;DHT22;3657;49.630;11.018;2023-12-07T07:16:24;0.90;99.90
7232;DHT22;3657;49.630;11.018;2023-12-07T07:18:52;0.90;99.90
7232;DHT22;3657;49.630;11.018;2023-12-07T07:21:19;0.90;99.90
7232;DHT22;3657;49.630;11.018;2023-12-07T07:23:46;0.90;99.90
7232;DHT22;3657;49.630;11.018;2023-12-07T07:26:12;1.00;99.90
7232;DHT22;3657;49.630;11.018;2023-12-07T07:28:42;1.00;99.90
7232;DHT22;3657;49.630;11.018;2023-12-07T07:31:09;1.00;99.90
7232;DHT22;3657;49.630;11.018;2023-12-07T07:33:35;1.00;99.90
7232;DHT22;3657;49.630;11.018;2023-12-07T07:36:04;1.00;99.90
7232;DHT22;3657;49.630;11.018;2023-12-07T07:38:31;1.00;99.90
7232;DHT22;3657;49.630;11.018;2023-12-07T07:40:57;1.00;99.90
7232;DHT22;3657;49.630;11.018;2023-12-07T07:43:24;1.00;99.90
7232;DHT22;3657;49.630;11.018;2023-12-07T07:45:51;1.00;99.90
7232;DHT22;3657;49.630;11.018;2023-12-07T07:48:17;1.00;99.90
7232;DHT22;3657;49.630;11.018;2023-12-07T07:50:44;1.00;99.90
7232;DHT22;3657;49.630;11.018;2023-12-07T07:53:12;1.00;99.90
7232;DHT22;3657;49.630;11.018;2023-12-07T07:55:39;1.00;99.90
7232;DHT22;3657;49.630;11.018;2023-12-07T07:58:06;1.00;99.90
7232;DHT22;3657;49.630;11.018;2023-12-07T08:00:33;1.10;99.90
7232;DHT22;3657;49.630;11.018;2023-12-07T08:03:00;1.10;99.90
7232;DHT22;3657;49.630;11.018;2023-12-07T08:05:26;1.10;99.90
7232;DHT22;3657;49.630;11.018;2023-12-07T08:07:53;1.10;99.90
7232;DHT22;3657;49.630;11.018;2023-12-07T08:10:22;1.20;99.90
7232;DHT22;3657;49.630;11.018;2023-12-07T08:12:49;1.20;99.90
7232;DHT22;3657;49.630;11.018;2023-12-07T08:15:16;1.20;99.90
7232;DHT22;3657;49.630;11.018;2023-12-07T08:17:43;1.30;99.90
7232;DHT22;3657;49.630;11.018;2023-12-07T08:20:10;1.30;99.90
7232;DHT22;3657;49.630;11.018;2023-12-07T08:22:38;1.30;99.90
7232;DHT22;3657;49.630;11.018;2023-12-07T08:25:06;1.30;99.90
7232;DHT22;3657;49.630;11.018;2023-12-07T08:27:36;1.40;99.90
7232;DHT22;3657;49.630;11.018;2023-12-07T08:30:04;1.40;99.90
7232;DHT22;3657;49.630;11.018;2023-12-07T08:32:31;1.30;99.90
7232;DHT22;3657;49.630;11.018;2023-12-07T08:34:58;1.30;99.90
7232;DHT22;3657;49.630;11.018;2023-12-07T08:37:24;1.30;99.90
7232;DHT22;3657;49.630;11.018;2023-12-07T08:39:51;1.40;99.90
7232;DHT22;3657;49.630;11.018;2023-12-07T08:42:18;1.40;99.90
7232;DHT22;3657;49.630;11.018;2023-12-07T08:44:46;1.40;99.90
7232;DHT22;3657;49.630;11.018;2023-12-07T08:47:12;1.50;99.90
7232;DHT22;3657;49.630;11.018;2023-12-07T08:49:39;1.60;99.90
7232;DHT22;3657;49.630;11.018;2023-12-07T08:52:06;1.60;99.90
7232;DHT22;3657;49.630;11.018;2023-12-07T08:54:33;1.60;99.90
7232;DHT22;3657;49.630;11.018;2023-12-07T08:57:01;1.60;99.90
7232;DHT22;3657;49.630;11.018;2023-12-07T08:59:28;1.70;99.90
7232;DHT22;3657;49.630;11.018;2023-12-07T09:01:57;1.80;99.90
7232;DHT22;3657;49.630;11.018;2023-12-07T09:04:23;1.90;99.90
7232;DHT22;3657;49.630;11.018;2023-12-07T09:06:50;2.00;99.90
7232;DHT22;3657;49.630;11.018;2023-12-07T09:09:17;2.10;99.90
7232;DHT22;3657;49.630;11.018;2023-12-07T09:11:43;2.20;99.90
7232;DHT22;3657;49.630;11.018;2023-12-07T09:14:10;2.40;99.90
7232;DHT22;3657;49.630;11.018;2023-12-07T09:16:42;2.60;99.90
7232;DHT22;3657;49.630;11.018;2023-12-07T09:19:11;2.90;99.90
7232;DHT22;3657;49.630;11.018;2023-12-07T09:21:39;3.20;99.90
7232;DHT22;3657;49.630;11.018;2023-12-07T09:24:06;3.40;99.90
7232;DHT22;3657;49.630;11.018;2023-12-07T09:26:33;3.50;99.90
7232;DHT22;3657;49.630;11.018;2023-12-07T09:29:00;3.50;99.90
7232;DHT22;3657;49.630;11.018;2023-12-07T09:31:26;3.30;99.90
7232;DHT22;3657;49.630;11.018;2023-12-07T09:33:53;3.20;99.90
7232;DHT22;3657;49.630;11.018;2023-12-07T09:36:23;3.00;99.90
7232;DHT22;3657;49.630;11.018;2023-12-07T09:38:52;2.90;99.90
7232;DHT22;3657;49.630;11.018;2023-12-07T09:41:19;2.80;99.90
7232;DHT22;3657;49.630;11.018;2023-12-07T09:43:46;2.80;99.90
7232;DHT22;3657;49.630;11.018;2023-12-07T09:46:14;2.80;99.90
7232;DHT22;3657;49.630;11.018;2023-12-07T09:48:43;2.80;99.90
7232;DHT22;3657;49.630;11.018;2023-12-07T09:51:10;2.70;99.90
7232;DHT22;3657;49.630;11.018;2023-12-07T09:53:39;2.60;99.90
7232;DHT22;3657;49.630;11.018;2023-12-07T09:56:09;2.60;99.90
7232;DHT22;3657;49.630;11.018;2023-12-07T09:58:36;2.60;99.90
7232;DHT22;3657;49.630;11.018;2023-12-07T10:01:03;2.60;99.90
7232;DHT22;3657;49.630;11.018;2023-12-07T10:03:30;2.60;99.90
7232;DHT22;3657;49.630;11.018;2023-12-07T10:05:58;2.60;99.90
7232;DHT22;3657;49.630;11.018;2023-12-07T10:08:26;2.60;99.90
7232;DHT22;3657;49.630;11.018;2023-12-07T10:11:03;2.60;99.90
7232;DHT22;3657;49.630;11.018;2023-12-07T10:13:30;2.70;99.90
7232;DHT22;3657;49.630;11.018;2023-12-07T10:16:09;2.60;99.90
7232;DHT22;3657;49.630;11.018;2023-12-07T10:18:36;2.60;99.90
7232;DHT22;3657;49.630;11.018;2023-12-07T10:21:06;2.50;99.90
7232;DHT22;3657;49.630;11.018;2023-12-07T10:23:33;2.50;99.90
7232;DHT22;3657;49.630;11.018;2023-12-07T10:26:00;2.50;99.90
7232;DHT22;3657;49.630;11.018;2023-12-07T10:28:28;2.50;99.90
7232;DHT22;3657;49.630;11.018;2023-12-07T10:30:55;2.50;99.90
7232;DHT22;3657;49.630;11.018;2023-12-07T10:33:23;2.50;99.90
7232;DHT22;3657;49.630;11.018;2023-12-07T10:35:50;2.40;99.90
7232;DHT22;3657;49.630;11.018;2023-12-07T10:38:16;2.50;99.90
7232;DHT22;3657;49.630;11.018;2023-12-07T10:40:44;2.50;99.90
7232;DHT22;3657;49.630;11.018;2023-12-07T10:43:12;2.40;99.90
7232;DHT22;3657;49.630;11.018;2023-12-07T10:45:41;2.30;99.90
7232;DHT22;3657;49.630;11.018;2023-12-07T10:48:09;2.30;99.90
7232;DHT22;3657;49.630;11.018;2023-12-07T10:50:37;2.20;99.90
7232;DHT22;3657;49.630;11.018;2023-12-07T10:53:09;2.20;99.90
7232;DHT22;3657;49.630;11.018;2023-12-07T10:55:41;2.30;99.90
7232;DHT22;3657;49.630;11.018;2023-12-07T10:58:10;2.30;99.90
7232;DHT22;3657;49.630;11.018;2023-12-07T11:00:42;2.30;99.90
7232;DHT22;3657;49.630;11.018;2023-12-07T11:03:14;2.30;99.90
7232;DHT22;3657;49.630;11.018;2023-12-07T11:05:42;2.20;99.90
7232;DHT22;3657;49.630;11.018;2023-12-07T11:08:12;2.20;99.90
7232;DHT22;3657;49.630;11.018;2023-12-07T11:10:48;2.10;99.90
7232;DHT22;3657;49.630;11.018;2023-12-07T11:13:20;2.20;99.90
7232;DHT22;3657;49.630;11.018;2023-12-07T11:15:50;2.20;99.90
7232;DHT22;3657;49.630;11.018;2023-12-07T11:18:17;2.20;99.90
7232;DHT22;3657;49.630;11.018;2023-12-07T11:20:45;2.20;99.90
7232;DHT22;3657;49.630;11.018;2023-12-07T11:23:15;2.30;99.90
7232;DHT22;3657;49.630;11.018;2023-12-07T11:25:43;2.30;99.90
7232;DHT22;3657;49.630;11.018;2023-12-07T11:28:11;2.30;99.90
7232;DHT22;3657;49.630;11.018;2023-12-07T11:30:38;2.40;99.90
7232;DHT22;3657;49.630;11.018;2023-12-07T11:33:09;2.40;99.90
7232;DHT22;3657;49.630;11.018;2023-12-07T11:36:05;2.40;99.90
7232;DHT22;3657;49.630;11.018;2023-12-07T11:38:32;2.40;99.90
7232;DHT22;3657;49.630;11.018;2023-12-07T11:40:59;2.40;99.90
7232;DHT22;3657;49.630;11.018;2023-12-07T11:43:42;2.40;99.90
7232;DHT22;3657;49.630;11.018;2023-12-07T11:46:12;2.40;99.90
7232;DHT22;3657;49.630;11.018;2023-12-07T11:48:46;2.40;99.90
7232;DHT22;3657;49.630;11.018;2023-12-07T11:51:14;2.40;99.90
7232;DHT22;3657;49.630;11.018;2023-12-07T11:53:41;2.40;99.90
7232;DHT22;3657;49.630;11.018;2023-12-07T11:56:08;2.40;99.90
7232;DHT22;3657;49.630;11.018;2023-12-07T11:58:37;2.40;99.90
7232;DHT22;3657;49.630;11.018;2023-12-07T12:01:04;2.40;99.90
7232;DHT22;3657;49.630;11.018;2023-12-07T12:03:31;2.40;99.90
7232;DHT22;3657;49.630;11.018;2023-12-07T12:06:03;2.40;99.90
7232;DHT22;3657;49.630;11.018;2023-12-07T12:08:31;2.40;99.90
7232;DHT22;3657;49.630;11.018;2023-12-07T12:10:57;2.40;99.90
7232;DHT22;3657;49.630;11.018;2023-12-07T12:13:27;2.40;99.90
7232;DHT22;3657;49.630;11.018;2023-12-07T12:15:55;2.40;99.90
7232;DHT22;3657;49.630;11.018;2023-12-07T12:18:22;2.40;99.90
7232;DHT22;3657;49.630;11.018;2023-12-07T12:20:51;2.40;99.90
7232;DHT22;3657;49.630;11.018;2023-12-07T12:23:19;2.40;99.90
7232;DHT22;3657;49.630;11.018;2023-12-07T12:25:46;2.50;99.90
7232;DHT22;3657;49.630;11.018;2023-12-07T12:28:15;2.50;99.90
7232;DHT22;3657;49.630;11.018;2023-12-07T12:30:43;2.50;99.90
7232;DHT22;3657;49.630;11.018;2023-12-07T12:33:09;2.60;99.90
7232;DHT22;3657;49.630;11.018;2023-12-07T12:35:36;2.50;99.90
7232;DHT22;3657;49.630;11.018;2023-12-07T12:38:09;2.60;99.90
7232;DHT22;3657;49.630;11.018;2023-12-07T12:40:37;2.50;99.90
7232;DHT22;3657;49.630;11.018;2023-12-07T12:43:05;2.50;99.90
7232;DHT22;3657;49.630;11.018;2023-12-07T12:45:33;2.60;99.90
7232;DHT22;3657;49.630;11.018;2023-12-07T12:47:59;2.60;99.90
7232;DHT22;3657;49.630;11.018;2023-12-07T12:50:35;2.60;99.90
7232;DHT22;3657;49.630;11.018;2023-12-07T12:53:03;2.60;99.90
7232;DHT22;3657;49.630;11.018;2023-12-07T12:55:31;2.60;99.90
7232;DHT22;3657;49.630;11.018;2023-12-07T12:58:00;2.70;99.90
7232;DHT22;3657;49.630;11.018;2023-12-07T13:00:29;2.70;99.90
7232;DHT22;3657;49.630;11.018;2023-12-07T13:02:56;2.70;99.90
7232;DHT22;3657;49.630;11.018;2023-12-07T13:05:22;2.80;99.90
7232;DHT22;3657;49.630;11.018;2023-12-07T13:07:49;2.80;99.90
7232;DHT22;3657;49.630;11.018;2023-12-07T13:10:16;2.80;99.90
7232;DHT22;3657;49.630;11.018;2023-12-07T13:12:43;2.80;99.90
7232;DHT22;3657;49.630;11.018;2023-12-07T13:15:12;2.80;99.90
7232;DHT22;3657;49.630;11.018;2023-12-07T13:17:39;2.90;99.90
7232;DHT22;3657;49.630;11.018;2023-12-07T13:20:06;2.90;99.90
7232;DHT22;3657;49.630;11.018;2023-12-07T13:22:35;3.00;99.90
7232;DHT22;3657;49.630;11.018;2023-12-07T13:25:02;3.10;99.90
7232;DHT22;3657;49.630;11.018;2023-12-07T13:27:29;3.10;99.90
7232;DHT22;3657;49.630;11.018;2023-12-07T13:29:56;3.10;99.90
7232;DHT22;3657;49.630;11.018;2023-12-07T13:32:24;3.10;99.90
7232;DHT22;3657;49.630;11.018;2023-12-07T13:34:51;3.10;99.90
7232;DHT22;3657;49.630;11.018;2023-12-07T13:37:17;3.10;99.90
7232;DHT22;3657;49.630;11.018;2023-12-07T13:39:46;3.10;99.90
7232;DHT22;3657;49.630;11.018;2023-12-07T13:42:18;3.00;99.90
7232;DHT22;3657;49.630;11.018;2023-12-07T13:44:45;3.00;99.90
7232;DHT22;3657;49.630;11.018;2023-12-07T13:47:11;3.00;99.90
7232;DHT22;3657;49.630;11.018;2023-12-07T13:49:39;2.90;99.90
7232;DHT22;3657;49.630;11.018;2023-12-07T13:52:06;2.90;99.90
7232;DHT22;3657;49.630;11.018;2023-12-07T13:54:33;2.80;99.90
7232;DHT22;3657;49.630;11.018;2023-12-07T13:56:59;2.80;99.90
7232;DHT22;3657;49.630;11.018;2023-12-07T13:59:26;2.80;99.90
7232;DHT22;3657;49.630;11.018;2023-12-07T14:01:52;2.80;99.90
7232;DHT22;3657;49.630;11.018;2023-12-07T14:04:21;2.70;99.90
7232;DHT22;3657;49.630;11.018;2023-12-07T14:06:49;2.70;99.90
7232;DHT22;3657;49.630;11.018;2023-12-07T14:09:16;2.60;99.90
7232;DHT22;3657;49.630;11.018;2023-12-07T14:11:43;2.60;99.90
7232;DHT22;3657;49.630;11.018;2023-12-07T14:14:10;2.60;99.90
7232;DHT22;3657;49.630;11.018;2023-12-07T14:16:38;2.60;99.90
7232;DHT22;3657;49.630;11.018;2023-12-07T14:19:05;2.60;99.90
7232;DHT22;3657;49.630;11.018;2023-12-07T14:21:32;2.60;99.90
7232;DHT22;3657;49.630;11.018;2023-12-07T14:24:00;2.60;99.90
7232;DHT22;3657;49.630;11.018;2023-12-07T14:26:26;2.50;99.90
7232;DHT22;3657;49.630;11.018;2023-12-07T14:28:54;2.50;99.90
7232;DHT22;3657;49.630;11.018;2023-12-07T14:31:20;2.40;99.90
7232;DHT22;3657;49.630;11.018;2023-12-07T14:33:47;2.40;99.90
7232;DHT22;3657;49.630;11.018;2023-12-07T14:36:14;2.40;99.90
7232;DHT22;3657;49.630;11.018;2023-12-07T14:38:40;2.40;99.90
7232;DHT22;3657;49.630;11.018;2023-12-07T14:41:09;2.30;99.90
7232;DHT22;3657;49.630;11.018;2023-12-07T14:43:38;2.30;99.90
7232;DHT22;3657;49.630;11.018;2023-12-07T14:46:06;2.30;99.90
7232;DHT22;3657;49.630;11.018;2023-12-07T14:48:32;2.30;99.90
7232;DHT22;3657;49.630;11.018;2023-12-07T14:50:59;2.30;99.90
7232;DHT22;3657;49.630;11.018;2023-12-07T14:53:26;2.30;99.90
7232;DHT22;3657;49.630;11.018;2023-12-07T14:55:53;2.20;99.90
7232;DHT22;3657;49.630;11.018;2023-12-07T14:58:24;2.20;99.90
7232;DHT22;3657;49.630;11.018;2023-12-07T15:00:51;2.20;99.90
7232;DHT22;3657;49.630;11.018;2023-12-07T15:03:17;2.10;99.90
7232;DHT22;3657;49.630;11.018;2023-12-07T15:05:44;2.00;99.90
7232;DHT22;3657;49.630;11.018;2023-12-07T15:08:11;2.00;99.90
7232;DHT22;3657;49.630;11.018;2023-12-07T15:10:38;1.90;99.90
7232;DHT22;3657;49.630;11.018;2023-12-07T15:13:04;2.00;99.90
7232;DHT22;3657;49.630;11.018;2023-12-07T15:15:33;1.90;99.90
7232;DHT22;3657;49.630;11.018;2023-12-07T15:17:59;1.80;99.90
7232;DHT22;3657;49.630;11.018;2023-12-07T15:20:26;1.90;99.90
7232;DHT22;3657;49.630;11.018;2023-12-07T15:22:53;1.90;99.90
7232;DHT22;3657;49.630;11.018;2023-12-07T15:25:19;2.00;99.90
7232;DHT22;3657;49.630;11.018;2023-12-07T15:27:48;2.00;99.90
7232;DHT22;3657;49.630;11.018;2023-12-07T15:30:15;2.00;99.90
7232;DHT22;3657;49.630;11.018;2023-12-07T15:32:43;2.00;99.90
7232;DHT22;3657;49.630;11.018;2023-12-07T15:35:09;2.00;99.90
7232;DHT22;3657;49.630;11.018;2023-12-07T15:37:36;1.90;99.90
7232;DHT22;3657;49.630;11.018;2023-12-07T15:40:03;2.00;99.90
7232;DHT22;3657;49.630;11.018;2023-12-07T15:42:30;1.80;99.90
7232;DHT22;3657;49.630;11.018;2023-12-07T15:44:57;1.70;99.90
7232;DHT22;3657;49.630;11.018;2023-12-07T15:47:24;1.60;99.90
7232;DHT22;3657;49.630;11.018;2023-12-07T15:49:52;1.50;99.90
7232;DHT22;3657;49.630;11.018;2023-12-07T15:52:19;1.40;99.90
7232;DHT22;3657;49.630;11.018;2023-12-07T15:54:45;1.30;99.90
7232;DHT22;3657;49.630;11.018;2023-12-07T15:57:12;1.30;99.90
7232;DHT22;3657;49.630;11.018;2023-12-07T15:59:39;1.30;99.90
7232;DHT22;3657;49.630;11.018;2023-12-07T16:02:06;1.30;99.90
7232;DHT22;3657;49.630;11.018;2023-12-07T16:04:32;1.20;99.90